Time;durP1;ratioP1;P1;durP2;ratioP2;P2;SDS_P1;SDS_P2;PMS_P1;PMS_P2;Temp;Humidity;BMP_temperature;BMP_pressure;BME280_temperature;BME280_humidity;BME280_pressure;Samples;Min_cycle;Max_cycle;Signal;HPM_P1;HPM_P2
2022/02/01 00:00:58;;;;;;;;;;;22.30;28.90;;;;;;5087498;28;19920;-66
2022/02/01 00:03:30;;;;;;;;;;;22.30;28.90;;;;;;5087088;28;19962;-67
2022/02/01 00:06:10;;;;;;;;;;;22.30;28.90;;;;;;5102175;28;19951;-66
2022/02/01 00:09:02;;;;;;;;;;;22.30;28.90;;;;;;5087566;28;20096;-65
2022/02/01 00:11:35;;;;;;;;;;;22.30;28.90;;;;;;5086483;28;20020;-67
2022/02/01 00:14:18;;;;;;;;;;;22.30;28.90;;;;;;5087868;28;20323;-66
2022/02/01 00:17:09;;;;;;;;;;;22.30;28.80;;;;;;5085913;28;19971;-66
2022/02/01 00:36:29;;;;;;;;;;;22.30;28.80;;;;;;5085545;28;19971;-66
2022/02/01 00:39:03;;;;;;;;;;;22.20;28.80;;;;;;5070908;28;20304;-66
2022/02/01 00:41:32;;;;;;;;;;;22.30;28.80;;;;;;5086388;28;19926;-66
2022/02/01 00:44:00;;;;;;;;;;;22.20;28.80;;;;;;5087465;28;19971;-66
2022/02/01 00:46:27;;;;;;;;;;;22.20;28.80;;;;;;5067586;28;19920;-66
2022/02/01 00:48:54;;;;;;;;;;;22.30;28.80;;;;;;5088233;28;20030;-66
2022/02/01 00:51:21;;;;;;;;;;;22.20;28.80;;;;;;5085472;28;19962;-66
2022/02/01 00:53:48;;;;;;;;;;;22.20;28.80;;;;;;5087646;28;20307;-66
2022/02/01 00:56:15;;;;;;;;;;;22.20;28.80;;;;;;5085350;28;19973;-66
2022/02/01 00:58:42;;;;;;;;;;;22.20;28.80;;;;;;5087656;28;19955;-67
2022/02/01 01:01:09;;;;;;;;;;;22.20;28.80;;;;;;5085880;28;19920;-67
2022/02/01 01:03:37;;;;;;;;;;;22.20;28.80;;;;;;5089123;28;19927;-66
2022/02/01 01:06:05;;;;;;;;;;;22.20;28.80;;;;;;5089114;28;19927;-66
2022/02/01 01:08:33;;;;;;;;;;;22.20;28.80;;;;;;5091304;28;20092;-66
2022/02/01 01:11:01;;;;;;;;;;;22.20;29.30;;;;;;5090297;28;20340;-66
2022/02/01 01:16:38;;;;;;;;;;;22.20;28.80;;;;;;5102367;28;20406;-66
2022/02/01 01:38:44;;;;;;;;;;;22.20;28.80;;;;;;5090644;28;19970;-66
2022/02/01 01:44:08;;;;;;;;;;;22.20;28.80;;;;;;5091253;28;19967;-66
2022/02/01 01:54:56;;;;;;;;;;;22.20;28.80;;;;;;5090864;28;19920;-67
2022/02/01 01:57:23;;;;;;;;;;;22.20;28.80;;;;;;5088613;28;19970;-66
2022/02/01 01:59:51;;;;;;;;;;;22.20;28.80;;;;;;5090921;28;19920;-67
2022/02/01 02:02:17;;;;;;;;;;;22.20;28.80;;;;;;5088360;28;20010;-66
2022/02/01 02:04:45;;;;;;;;;;;22.20;28.80;;;;;;5090244;28;19920;-66
2022/02/01 02:07:13;;;;;;;;;;;22.20;28.80;;;;;;5088835;28;19995;-66
2022/02/01 02:09:40;;;;;;;;;;;22.20;28.80;;;;;;5105296;28;19926;-67
2022/02/01 02:12:14;;;;;;;;;;;22.20;28.80;;;;;;5088174;28;19946;-67
2022/02/01 02:14:47;;;;;;;;;;;22.20;28.80;;;;;;5089229;28;19993;-67
2022/02/01 02:17:14;;;;;;;;;;;22.20;28.80;;;;;;5088584;28;20285;-66
2022/02/01 02:19:41;;;;;;;;;;;22.20;28.80;;;;;;5089922;28;19974;-66
2022/02/01 02:22:08;;;;;;;;;;;22.20;28.80;;;;;;5087328;28;19963;-66
2022/02/01 02:24:38;;;;;;;;;;;22.20;28.80;;;;;;5089978;28;19967;-66
2022/02/01 02:27:05;;;;;;;;;;;22.20;28.80;;;;;;5087776;28;20369;-66
2022/02/01 02:29:33;;;;;;;;;;;22.20;28.80;;;;;;5089974;28;19932;-66
2022/02/01 02:32:02;;;;;;;;;;;22.20;28.80;;;;;;5087900;28;19942;-66
2022/02/01 02:34:29;;;;;;;;;;;22.20;28.80;;;;;;5088950;28;19920;-66
2022/02/01 02:37:00;;;;;;;;;;;22.20;28.80;;;;;;5087927;28;20444;-67
2022/02/01 02:39:47;;;;;;;;;;;22.20;28.80;;;;;;5089543;28;20124;-66
2022/02/01 02:42:24;;;;;;;;;;;22.20;28.80;;;;;;5087774;28;19920;-66
2022/02/01 02:45:08;;;;;;;;;;;22.20;28.80;;;;;;5089723;28;19927;-67
2022/02/01 02:47:36;;;;;;;;;;;22.20;28.90;;;;;;5087439;28;19920;-66
2022/02/01 02:50:03;;;;;;;;;;;22.10;28.80;;;;;;5089723;28;20521;-67
2022/02/01 02:52:30;;;;;;;;;;;22.10;28.80;;;;;;5087506;28;19978;-66
2022/02/01 02:54:58;;;;;;;;;;;22.10;28.80;;;;;;5089330;28;20318;-67
2022/02/01 02:57:25;;;;;;;;;;;22.10;28.80;;;;;;5087403;28;20441;-67
2022/02/01 02:59:53;;;;;;;;;;;22.10;28.80;;;;;;5089221;28;20292;-67
2022/02/01 03:02:20;;;;;;;;;;;22.10;28.80;;;;;;5087666;28;20409;-66
2022/02/01 03:04:47;;;;;;;;;;;22.10;28.80;;;;;;5088921;28;19923;-66
2022/02/01 03:07:14;;;;;;;;;;;22.10;28.80;;;;;;5088040;28;20007;-66
2022/02/01 03:09:43;;;;;;;;;;;22.10;28.80;;;;;;5088872;28;20145;-66
2022/02/01 03:12:16;;;;;;;;;;;22.10;28.80;;;;;;5087364;28;20156;-66
2022/02/01 03:14:56;;;;;;;;;;;22.10;28.80;;;;;;5089190;28;19924;-66
2022/02/01 03:19:47;;;;;;;;;;;22.10;28.80;;;;;;5086959;28;20021;-67
2022/02/01 03:20:10;;;;;;;;;;;22.10;28.80;;;;;;5088981;28;19975;-66
2022/02/01 03:22:37;;;;;;;;;;;22.10;28.80;;;;;;5087073;28;20008;-66
2022/02/01 03:25:04;;;;;;;;;;;22.10;28.80;;;;;;5089243;28;19920;-67
2022/02/01 03:27:31;;;;;;;;;;;22.10;28.80;;;;;;5086988;28;19974;-67
2022/02/01 03:29:59;;;;;;;;;;;22.10;28.80;;;;;;5088676;28;20361;-67
2022/02/01 03:32:26;;;;;;;;;;;22.10;28.80;;;;;;5086890;28;19920;-67
2022/02/01 03:34:53;;;;;;;;;;;22.10;28.80;;;;;;5088582;28;19971;-67
2022/02/01 03:37:20;;;;;;;;;;;22.10;28.80;;;;;;5086759;28;20010;-66
2022/02/01 03:39:47;;;;;;;;;;;22.00;28.80;;;;;;5088609;28;20209;-66
2022/02/01 03:42:14;;;;;;;;;;;22.10;28.90;;;;;;5086455;28;20383;-66
2022/02/01 03:44:41;;;;;;;;;;;22.00;28.80;;;;;;5088452;28;19924;-67
2022/02/01 03:47:08;;;;;;;;;;;22.10;28.80;;;;;;5084770;28;20436;-66
2022/02/01 03:49:37;;;;;;;;;;;22.10;28.80;;;;;;5088864;28;19920;-66
2022/02/01 03:52:05;;;;;;;;;;;22.10;28.90;;;;;;5086331;28;19926;-66
2022/02/01 03:54:33;;;;;;;;;;;22.10;28.90;;;;;;5088314;28;19989;-66
2022/02/01 03:57:00;;;;;;;;;;;22.10;28.90;;;;;;5086194;28;20533;-67
2022/02/01 03:59:27;;;;;;;;;;;22.10;28.90;;;;;;5088321;28;20272;-66
2022/02/01 04:01:57;;;;;;;;;;;22.10;28.90;;;;;;5086222;28;20292;-66
2022/02/01 04:04:26;;;;;;;;;;;22.10;28.90;;;;;;5087865;28;20291;-66
2022/02/01 04:06:53;;;;;;;;;;;22.10;28.90;;;;;;5086898;28;20015;-66
2022/02/01 04:09:22;;;;;;;;;;;22.10;28.80;;;;;;5087559;28;20276;-65
2022/02/01 04:11:50;;;;;;;;;;;22.10;28.80;;;;;;5085960;28;19981;-66
2022/02/01 04:14:18;;;;;;;;;;;22.10;28.90;;;;;;5087810;28;19975;-66
2022/02/01 04:16:45;;;;;;;;;;;22.00;28.80;;;;;;5086673;28;20032;-66
2022/02/01 04:19:13;;;;;;;;;;;22.00;28.80;;;;;;5088225;28;19928;-66
2022/02/01 04:21:48;;;;;;;;;;;22.00;28.80;;;;;;5086252;28;19920;-66
2022/02/01 04:24:15;;;;;;;;;;;22.00;28.80;;;;;;5087748;28;19924;-66
2022/02/01 04:26:42;;;;;;;;;;;22.00;28.80;;;;;;5086015;28;20352;-66
2022/02/01 04:29:09;;;;;;;;;;;22.00;28.80;;;;;;5086715;28;19924;-66
2022/02/01 04:31:36;;;;;;;;;;;22.00;28.80;;;;;;5084654;28;20015;-66
2022/02/01 04:34:03;;;;;;;;;;;22.00;28.90;;;;;;5083936;28;19930;-66
2022/02/01 04:36:30;;;;;;;;;;;22.00;28.80;;;;;;5084912;28;19924;-66
2022/02/01 04:38:57;;;;;;;;;;;22.00;28.80;;;;;;5092719;28;19920;-66
2022/02/01 04:41:25;;;;;;;;;;;22.00;28.90;;;;;;5091077;28;19959;-66
2022/02/01 04:43:53;;;;;;;;;;;22.00;28.90;;;;;;5104466;28;19959;-66
2022/02/01 04:46:21;;;;;;;;;;;22.00;28.90;;;;;;5098356;28;20289;-66
2022/02/01 04:48:58;;;;;;;;;;;22.00;28.90;;;;;;5093513;28;20255;-66
2022/02/01 04:51:26;;;;;;;;;;;21.90;28.80;;;;;;5099583;28;20003;-66
2022/02/01 04:53:54;;;;;;;;;;;22.00;28.90;;;;;;5106312;28;20002;-66
2022/02/01 04:56:22;;;;;;;;;;;22.00;28.90;;;;;;5083078;28;19919;-66
2022/02/01 04:58:48;;;;;;;;;;;21.90;28.80;;;;;;5114090;28;19920;-66
2022/02/01 05:01:16;;;;;;;;;;;22.00;28.90;;;;;;5112817;28;20014;-67
2022/02/01 05:03:43;;;;;;;;;;;21.90;28.90;;;;;;5114672;28;20448;-66
2022/02/01 05:06:12;;;;;;;;;;;21.90;28.80;;;;;;5112705;28;20006;-66
2022/02/01 05:08:41;;;;;;;;;;;21.90;28.80;;;;;;5097713;28;20226;-66
2022/02/01 05:11:09;;;;;;;;;;;21.90;28.80;;;;;;5092145;28;20006;-66
2022/02/01 05:14:02;;;;;;;;;;;21.90;28.80;;;;;;5114394;28;20030;-66
2022/02/01 05:16:41;;;;;;;;;;;21.90;28.80;;;;;;5096255;28;19964;-66
2022/02/01 05:19:11;;;;;;;;;;;21.90;28.80;;;;;;5093828;28;19919;-66
2022/02/01 05:21:39;;;;;;;;;;;21.90;28.90;;;;;;5091837;28;19965;-66
2022/02/01 05:24:10;;;;;;;;;;;21.90;28.90;;;;;;5093141;28;20315;-66
2022/02/01 05:26:37;;;;;;;;;;;21.90;28.90;;;;;;5092618;28;20197;-66
2022/02/01 05:29:04;;;;;;;;;;;21.90;28.90;;;;;;5078438;28;20353;-66
2022/02/01 05:31:31;;;;;;;;;;;22.00;28.90;;;;;;5087451;28;19920;-66
2022/02/01 05:33:58;;;;;;;;;;;21.90;28.90;;;;;;5090037;28;20146;-66
2022/02/01 05:36:26;;;;;;;;;;;21.90;28.90;;;;;;5069982;28;19930;-66
2022/02/01 05:38:54;;;;;;;;;;;21.90;28.90;;;;;;5086285;28;19923;-66
2022/02/01 05:41:24;;;;;;;;;;;21.90;28.90;;;;;;5087754;28;19920;-67
2022/02/01 05:43:54;;;;;;;;;;;21.90;28.90;;;;;;5093674;28;20364;-66
2022/02/01 05:46:22;;;;;;;;;;;21.90;28.90;;;;;;5085242;28;20469;-67
2022/02/01 05:48:49;;;;;;;;;;;21.90;28.90;;;;;;5090448;28;19920;-66
2022/02/01 05:51:16;;;;;;;;;;;21.90;28.90;;;;;;5085676;28;19919;-67
2022/02/01 05:53:43;;;;;;;;;;;21.90;28.80;;;;;;5083409;28;19965;-66
2022/02/01 05:56:10;;;;;;;;;;;22.00;28.90;;;;;;5086195;28;20200;-66
2022/02/01 05:58:38;;;;;;;;;;;22.00;28.90;;;;;;5087825;28;19977;-66
2022/02/01 06:01:05;;;;;;;;;;;21.90;28.80;;;;;;5078793;28;19920;-66
2022/02/01 06:03:32;;;;;;;;;;;22.00;28.90;;;;;;5086375;28;20016;-66
2022/02/01 06:06:01;;;;;;;;;;;22.00;28.80;;;;;;5067326;28;19924;-66
2022/02/01 06:08:30;;;;;;;;;;;21.90;28.80;;;;;;5085096;28;20266;-66
2022/02/01 06:10:57;;;;;;;;;;;21.90;28.80;;;;;;5086018;28;19942;-66
2022/02/01 06:13:24;;;;;;;;;;;21.90;28.80;;;;;;5088016;28;19981;-66
2022/02/01 06:15:51;;;;;;;;;;;21.90;28.80;;;;;;5085689;28;20006;-66
2022/02/01 06:21:50;;;;;;;;;;;21.80;28.70;;;;;;5086750;28;19935;-66
2022/02/01 06:24:19;;;;;;;;;;;21.80;28.60;;;;;;5087369;28;19949;-65
2022/02/01 06:26:46;;;;;;;;;;;21.90;28.60;;;;;;5087510;28;19931;-63
2022/02/01 06:29:13;;;;;;;;;;;21.80;28.50;;;;;;5089460;28;20557;-63
2022/02/01 06:31:41;;;;;;;;;;;21.90;28.70;;;;;;5065809;28;19927;-65
2022/02/01 06:34:08;;;;;;;;;;;21.90;28.60;;;;;;5081663;28;19920;-64
2022/02/01 06:36:35;;;;;;;;;;;22.00;28.60;;;;;;5082700;28;19938;-63
2022/02/01 06:39:03;;;;;;;;;;;22.00;28.50;;;;;;5085136;28;19920;-63
2022/02/01 06:41:31;;;;;;;;;;;22.10;28.50;;;;;;5089254;28;20642;-65
2022/02/01 06:43:58;;;;;;;;;;;22.10;28.50;;;;;;5086761;28;20412;-64
2022/02/01 06:46:26;;;;;;;;;;;22.20;28.50;;;;;;5086603;28;19920;-66
2022/02/01 06:48:54;;;;;;;;;;;22.20;28.50;;;;;;5086838;28;20010;-64
2022/02/01 06:51:22;;;;;;;;;;;22.30;28.50;;;;;;5088255;28;19920;-64
2022/02/01 06:53:50;;;;;;;;;;;22.40;28.40;;;;;;5086066;28;20560;-64
2022/02/01 06:56:28;;;;;;;;;;;22.40;28.30;;;;;;5085755;28;19920;-64
2022/02/01 06:58:59;;;;;;;;;;;22.40;28.20;;;;;;5087043;28;20373;-67
2022/02/01 07:01:26;;;;;;;;;;;22.50;28.20;;;;;;5089100;28;19923;-68
2022/02/01 07:03:54;;;;;;;;;;;22.50;28.10;;;;;;5087017;28;19920;-67
2022/02/01 07:06:21;;;;;;;;;;;22.50;28.00;;;;;;5087087;28;19959;-65
2022/02/01 07:08:49;;;;;;;;;;;22.60;28.10;;;;;;5088913;28;20339;-64
2022/02/01 07:11:16;;;;;;;;;;;22.70;28.10;;;;;;5089375;28;19924;-67
2022/02/01 07:13:46;;;;;;;;;;;22.70;28.00;;;;;;5089830;28;20206;-66
2022/02/01 07:16:14;;;;;;;;;;;22.80;28.10;;;;;;5089948;28;19945;-66
2022/02/01 07:18:41;;;;;;;;;;;22.80;28.00;;;;;;5089313;28;20009;-70
2022/02/01 07:21:08;;;;;;;;;;;22.90;28.00;;;;;;5087995;28;19962;-62
2022/02/01 07:23:36;;;;;;;;;;;22.90;28.00;;;;;;5091014;28;20288;-66
2022/02/01 07:26:03;;;;;;;;;;;23.00;28.20;;;;;;5090417;28;19947;-66
2022/02/01 07:28:30;;;;;;;;;;;23.10;28.40;;;;;;5086219;28;19920;-71
2022/02/01 07:31:00;;;;;;;;;;;23.20;28.50;;;;;;5090459;28;20339;-68
2022/02/01 07:33:28;;;;;;;;;;;23.20;28.40;;;;;;5089813;28;19920;-68
2022/02/01 07:35:56;;;;;;;;;;;23.20;28.20;;;;;;5090086;28;19920;-68
2022/02/01 07:38:25;;;;;;;;;;;23.20;28.20;;;;;;5085593;28;20396;-68
2022/02/01 07:40:54;;;;;;;;;;;23.20;28.10;;;;;;5089650;28;19920;-67
2022/02/01 07:43:22;;;;;;;;;;;23.20;28.00;;;;;;5090531;28;19920;-68
2022/02/01 07:45:50;;;;;;;;;;;23.20;27.90;;;;;;5090339;28;20404;-67
2022/02/01 07:48:18;;;;;;;;;;;23.20;28.30;;;;;;5085330;28;19920;-68
2022/02/01 07:50:45;;;;;;;;;;;23.20;27.80;;;;;;5089091;28;19924;-67
2022/02/01 07:53:12;;;;;;;;;;;23.20;27.70;;;;;;5087391;28;19920;-68
2022/02/01 07:55:39;;;;;;;;;;;23.20;28.20;;;;;;5090266;28;20360;-68
2022/02/01 07:58:06;;;;;;;;;;;23.20;27.70;;;;;;5087675;28;19928;-68
2022/02/01 08:00:33;;;;;;;;;;;23.20;27.70;;;;;;5088898;28;19920;-67
2022/02/01 08:03:00;;;;;;;;;;;23.20;27.60;;;;;;5090012;28;19920;-68
2022/02/01 08:05:29;;;;;;;;;;;23.20;27.60;;;;;;5089288;28;19920;-68
2022/02/01 08:07:58;;;;;;;;;;;23.20;27.60;;;;;;5087491;28;20893;-67
2022/02/01 08:10:30;;;;;;;;;;;23.30;27.60;;;;;;5089538;28;19977;-67
2022/02/01 08:13:45;;;;;;;;;;;23.30;27.60;;;;;;5103428;28;19920;-64
2022/02/01 08:16:28;;;;;;;;;;;23.30;27.60;;;;;;5089070;28;19973;-69
2022/02/01 08:21:45;;;;;;;;;;;23.30;27.70;;;;;;5090081;28;20016;-67
2022/02/01 08:24:12;;;;;;;;;;;23.30;27.80;;;;;;5089589;28;20459;-67
2022/02/01 08:26:39;;;;;;;;;;;23.30;27.80;;;;;;5088401;28;19927;-70
2022/02/01 08:29:07;;;;;;;;;;;23.30;27.90;;;;;;5085796;28;20512;-67
2022/02/01 08:31:44;;;;;;;;;;;23.30;28.10;;;;;;5088783;28;20616;-67
2022/02/01 08:34:11;;;;;;;;;;;23.40;28.10;;;;;;5088378;28;20402;-67
2022/02/01 08:36:38;;;;;;;;;;;23.40;28.00;;;;;;5089072;28;19920;-67
2022/02/01 08:39:05;;;;;;;;;;;23.30;28.00;;;;;;5084215;28;20683;-68
2022/02/01 08:41:32;;;;;;;;;;;23.30;28.10;;;;;;5080810;28;19950;-68
2022/02/01 08:44:00;;;;;;;;;;;23.40;28.20;;;;;;5084035;28;19963;-68
2022/02/01 08:46:28;;;;;;;;;;;23.40;28.10;;;;;;5083084;28;19928;-68
2022/02/01 08:48:55;;;;;;;;;;;23.40;28.00;;;;;;5080940;28;19923;-68
2022/02/01 08:51:24;;;;;;;;;;;23.40;28.00;;;;;;5085790;28;20323;-68
2022/02/01 08:53:57;;;;;;;;;;;23.40;28.00;;;;;;5081329;28;19927;-68
2022/02/01 08:59:28;;;;;;;;;;;23.40;27.90;;;;;;5086622;28;19920;-70
2022/02/01 09:01:55;;;;;;;;;;;23.40;27.90;;;;;;5087153;28;19996;-70
2022/02/01 09:04:23;;;;;;;;;;;23.40;27.90;;;;;;5083944;28;19924;-67
2022/02/01 09:06:51;;;;;;;;;;;23.40;27.90;;;;;;5082601;28;20015;-67
2022/02/01 09:09:18;;;;;;;;;;;23.40;28.20;;;;;;5083317;28;19923;-67
2022/02/01 09:11:45;;;;;;;;;;;23.40;27.90;;;;;;5083859;28;19985;-67
2022/02/01 09:14:12;;;;;;;;;;;23.40;27.90;;;;;;5083277;28;20006;-66
2022/02/01 09:16:39;;;;;;;;;;;23.50;27.90;;;;;;5080821;28;20593;-66
2022/02/01 09:19:07;;;;;;;;;;;23.50;27.80;;;;;;5080838;28;19950;-66
2022/02/01 09:21:34;;;;;;;;;;;23.50;27.80;;;;;;5084004;28;20026;-66
2022/02/01 09:24:02;;;;;;;;;;;23.50;27.70;;;;;;5081922;28;19927;-66
2022/02/01 09:26:29;;;;;;;;;;;23.50;28.10;;;;;;5087307;28;20330;-66
2022/02/01 09:29:17;;;;;;;;;;;23.50;27.60;;;;;;5087450;28;19928;-66
2022/02/01 09:31:45;;;;;;;;;;;23.60;27.60;;;;;;5088103;28;19939;-66
2022/02/01 09:34:12;;;;;;;;;;;23.60;28.00;;;;;;5086540;28;20645;-66
2022/02/01 09:36:45;;;;;;;;;;;23.60;27.50;;;;;;5088088;28;19965;-65
2022/02/01 09:39:12;;;;;;;;;;;23.60;27.40;;;;;;5082952;28;20379;-66
2022/02/01 09:41:39;;;;;;;;;;;23.60;27.90;;;;;;5088344;28;20423;-66
2022/02/01 09:44:07;;;;;;;;;;;23.60;27.40;;;;;;5101173;27;20447;-66
2022/02/01 09:46:37;;;;;;;;;;;23.60;27.40;;;;;;5081662;28;19920;-66
2022/02/01 09:49:08;;;;;;;;;;;23.50;27.40;;;;;;5085223;28;19997;-66
2022/02/01 09:51:35;;;;;;;;;;;23.60;27.40;;;;;;5085669;28;19966;-66
2022/02/01 09:54:20;;;;;;;;;;;23.60;27.50;;;;;;5087741;28;20432;-67
2022/02/01 09:56:50;;;;;;;;;;;23.50;27.40;;;;;;5089574;28;19928;-66
2022/02/01 09:59:21;;;;;;;;;;;23.50;27.30;;;;;;5088842;28;20414;-67
2022/02/01 10:01:55;;;;;;;;;;;23.50;27.30;;;;;;5082104;28;19939;-68
2022/02/01 10:04:27;;;;;;;;;;;23.50;27.30;;;;;;5088087;28;19930;-68
2022/02/01 10:07:04;;;;;;;;;;;23.50;27.20;;;;;;5083137;28;19931;-68
2022/02/01 10:09:34;;;;;;;;;;;23.50;27.20;;;;;;5086847;28;19969;-68
2022/02/01 10:12:01;;;;;;;;;;;23.50;27.20;;;;;;5085424;28;19924;-68
2022/02/01 10:14:36;;;;;;;;;;;23.50;27.10;;;;;;5087223;28;20018;-68
2022/02/01 10:17:07;;;;;;;;;;;23.40;27.10;;;;;;5085368;28;20331;-68
2022/02/01 10:19:45;;;;;;;;;;;23.40;27.00;;;;;;5092046;28;19985;-68
2022/02/01 10:22:12;;;;;;;;;;;23.40;26.90;;;;;;5084695;28;19951;-68
2022/02/01 10:24:41;;;;;;;;;;;23.30;26.80;;;;;;5086807;28;19993;-67
2022/02/01 10:27:16;;;;;;;;;;;23.30;26.80;;;;;;5082844;28;19928;-68
2022/02/01 10:30:16;;;;;;;;;;;23.30;26.80;;;;;;5084767;28;19974;-68
2022/02/01 10:33:07;;;;;;;;;;;23.40;26.80;;;;;;5079730;28;19998;-68
2022/02/01 10:35:48;;;;;;;;;;;23.30;26.60;;;;;;5076583;28;19920;-68
2022/02/01 10:38:18;;;;;;;;;;;23.30;26.60;;;;;;5086720;28;19989;-68
2022/02/01 10:40:46;;;;;;;;;;;23.30;26.60;;;;;;5082431;28;20012;-67
2022/02/01 10:43:25;;;;;;;;;;;23.30;26.50;;;;;;5100751;28;20026;-68
2022/02/01 10:45:53;;;;;;;;;;;23.40;26.50;;;;;;5102066;28;19932;-67
2022/02/01 10:48:25;;;;;;;;;;;23.40;26.60;;;;;;5087763;28;19963;-68
2022/02/01 10:51:02;;;;;;;;;;;23.40;26.40;;;;;;5084097;28;20002;-68
2022/02/01 10:53:30;;;;;;;;;;;23.50;26.50;;;;;;5091085;28;19959;-67
2022/02/01 10:55:58;;;;;;;;;;;23.50;26.50;;;;;;5091745;28;19973;-67
2022/02/01 10:58:25;;;;;;;;;;;23.50;26.50;;;;;;5084735;28;20453;-67
2022/02/01 11:00:53;;;;;;;;;;;23.60;26.50;;;;;;5082944;28;20266;-67
2022/02/01 11:03:22;;;;;;;;;;;23.60;26.50;;;;;;5102881;27;20387;-68
2022/02/01 11:05:50;;;;;;;;;;;23.60;26.60;;;;;;5089840;28;19975;-67
2022/02/01 11:08:19;;;;;;;;;;;23.60;26.50;;;;;;5081215;28;19967;-67
2022/02/01 11:10:48;;;;;;;;;;;23.60;26.50;;;;;;5085701;28;19999;-67
2022/02/01 11:13:15;;;;;;;;;;;23.60;26.50;;;;;;5090943;28;19920;-67
2022/02/01 11:16:00;;;;;;;;;;;23.60;26.50;;;;;;5086491;28;19930;-66
2022/02/01 11:18:28;;;;;;;;;;;23.60;26.50;;;;;;5088800;28;19920;-69
2022/02/01 11:21:10;;;;;;;;;;;23.60;26.50;;;;;;5087736;28;19973;-68
2022/02/01 11:23:47;;;;;;;;;;;23.60;26.50;;;;;;5080685;28;19920;-68
2022/02/01 11:26:36;;;;;;;;;;;23.60;26.40;;;;;;5085895;28;19936;-69
2022/02/01 11:29:29;;;;;;;;;;;23.60;26.50;;;;;;5083802;28;19953;-68
2022/02/01 11:31:58;;;;;;;;;;;23.60;26.40;;;;;;5084756;28;19932;-68
2022/02/01 11:34:38;;;;;;;;;;;23.70;26.50;;;;;;5072216;28;20320;-68
2022/02/01 11:37:10;;;;;;;;;;;23.60;26.40;;;;;;5086462;28;19981;-68
2022/02/01 11:39:51;;;;;;;;;;;23.70;26.50;;;;;;5084919;28;19973;-69
2022/02/01 11:42:19;;;;;;;;;;;23.70;26.40;;;;;;5081594;28;19934;-68
2022/02/01 11:44:47;;;;;;;;;;;23.70;26.30;;;;;;5088589;28;19924;-68
2022/02/01 11:47:20;;;;;;;;;;;23.70;26.30;;;;;;5082226;28;19955;-69
2022/02/01 11:49:59;;;;;;;;;;;23.70;26.30;;;;;;5084620;28;19920;-68
2022/02/01 11:52:27;;;;;;;;;;;23.70;26.30;;;;;;5082318;28;19928;-68
2022/02/01 11:55:04;;;;;;;;;;;23.70;26.30;;;;;;5085575;28;20035;-68
2022/02/01 11:57:51;;;;;;;;;;;23.70;26.20;;;;;;5067675;28;20383;-68
2022/02/01 12:00:26;;;;;;;;;;;23.70;26.20;;;;;;5085264;28;19989;-68
2022/02/01 12:06:20;;;;;;;;;;;23.80;26.20;;;;;;5084435;28;20040;-67
2022/02/01 12:08:48;;;;;;;;;;;23.70;26.10;;;;;;5083244;28;19959;-67
2022/02/01 12:11:16;;;;;;;;;;;23.80;26.10;;;;;;5080529;28;19928;-67
2022/02/01 12:13:43;;;;;;;;;;;23.70;26.00;;;;;;5084991;28;20011;-67
2022/02/01 12:16:10;;;;;;;;;;;23.80;26.00;;;;;;5090661;28;19927;-68
2022/02/01 12:18:57;;;;;;;;;;;23.80;26.00;;;;;;5095929;28;20265;-68
2022/02/01 12:21:42;;;;;;;;;;;23.80;25.90;;;;;;5082743;28;20376;-67
2022/02/01 12:24:09;;;;;;;;;;;23.90;25.80;;;;;;5085237;28;19942;-67
2022/02/01 12:26:38;;;;;;;;;;;23.90;25.70;;;;;;5081283;28;20399;-69
2022/02/01 12:29:07;;;;;;;;;;;23.80;25.70;;;;;;5085808;28;19927;-69
2022/02/01 12:31:38;;;;;;;;;;;23.90;25.70;;;;;;5084409;28;19955;-66
2022/02/01 12:34:06;;;;;;;;;;;23.80;25.70;;;;;;5087184;28;20015;-65
2022/02/01 12:36:36;;;;;;;;;;;23.80;25.80;;;;;;5086459;28;19974;-65
2022/02/01 12:39:13;;;;;;;;;;;23.80;25.90;;;;;;5084142;28;19965;-65
2022/02/01 12:41:43;;;;;;;;;;;23.80;25.80;;;;;;5083960;28;19928;-65
2022/02/01 12:47:01;;;;;;;;;;;23.80;25.80;;;;;;5071180;28;19928;-65
2022/02/01 12:49:35;;;;;;;;;;;23.80;25.70;;;;;;5084323;28;19973;-65
2022/02/01 12:52:03;;;;;;;;;;;23.80;25.70;;;;;;5082496;28;20010;-65
2022/02/01 12:54:36;;;;;;;;;;;23.70;25.80;;;;;;5086744;28;20237;-66
2022/02/01 12:57:09;;;;;;;;;;;23.70;25.80;;;;;;5069197;28;20387;-65
2022/02/01 12:59:37;;;;;;;;;;;23.80;25.70;;;;;;5100357;28;19924;-65
2022/02/01 13:02:05;;;;;;;;;;;23.80;25.70;;;;;;5087987;28;19920;-67
2022/02/01 13:04:32;;;;;;;;;;;23.80;25.70;;;;;;5092278;28;19920;-69
2022/02/01 13:07:00;;;;;;;;;;;23.80;25.70;;;;;;5091186;28;20010;-69
2022/02/01 13:15:14;;;;;;;;;;;23.80;25.80;;;;;;5093145;28;19973;-69
2022/02/01 13:17:58;;;;;;;;;;;23.80;25.80;;;;;;5089569;28;19968;-68
2022/02/01 13:20:25;;;;;;;;;;;23.80;25.80;;;;;;5077747;28;19967;-67
2022/02/01 13:22:56;;;;;;;;;;;23.80;25.70;;;;;;5093110;28;19973;-67
2022/02/01 13:25:28;;;;;;;;;;;23.80;25.70;;;;;;5092974;28;19920;-68
2022/02/01 13:31:20;;;;;;;;;;;23.80;25.50;;;;;;5087219;28;19972;-70
2022/02/01 13:33:49;;;;;;;;;;;23.80;25.50;;;;;;5089058;28;19924;-68
2022/02/01 13:36:17;;;;;;;;;;;23.80;25.50;;;;;;5092417;28;19928;-68
2022/02/01 13:38:53;;;;;;;;;;;23.80;25.50;;;;;;5090398;28;20300;-69
2022/02/01 13:41:21;;;;;;;;;;;23.80;25.50;;;;;;5091311;28;19924;-64
2022/02/01 13:43:49;;;;;;;;;;;23.80;25.40;;;;;;5090543;28;20350;-68
2022/02/01 13:46:20;;;;;;;;;;;23.80;25.40;;;;;;5104732;28;19944;-68
2022/02/01 13:49:01;;;;;;;;;;;23.80;25.40;;;;;;5088820;28;19920;-68
2022/02/01 13:51:29;;;;;;;;;;;23.80;25.40;;;;;;5087006;28;20297;-68
2022/02/01 13:53:59;;;;;;;;;;;23.70;25.30;;;;;;5090977;28;19974;-68
2022/02/01 13:56:30;;;;;;;;;;;23.80;25.30;;;;;;5077314;28;20339;-68
2022/02/01 13:59:09;;;;;;;;;;;23.70;25.30;;;;;;5090676;28;19920;-68
2022/02/01 14:01:40;;;;;;;;;;;23.70;25.30;;;;;;5084084;28;19928;-69
2022/02/01 14:04:25;;;;;;;;;;;23.70;25.80;;;;;;5090292;28;19965;-68
2022/02/01 14:07:10;;;;;;;;;;;23.70;25.40;;;;;;5091414;28;20018;-68
2022/02/01 14:09:51;;;;;;;;;;;23.70;25.40;;;;;;5091346;28;19970;-69
2022/02/01 14:27:47;;;;;;;;;;;23.60;25.40;;;;;;5086046;28;20382;-68
2022/02/01 14:33:41;;;;;;;;;;;23.60;25.40;;;;;;5089155;28;19920;-65
2022/02/01 14:36:02;;;;;;;;;;;23.60;25.40;;;;;;5090878;28;20008;-69
2022/02/01 14:44:45;;;;;;;;;;;23.60;25.50;;;;;;5088280;28;20323;-69
2022/02/01 14:47:13;;;;;;;;;;;23.50;25.50;;;;;;5089224;28;19920;-68
2022/02/01 14:49:41;;;;;;;;;;;23.50;25.60;;;;;;5085629;28;20018;-71
2022/02/01 14:52:08;;;;;;;;;;;23.50;25.60;;;;;;5081667;28;21245;-67
2022/02/01 14:54:43;;;;;;;;;;;23.50;25.70;;;;;;5069483;28;19966;-65
2022/02/01 15:06:20;;;;;;;;;;;23.50;26.40;;;;;;5085397;28;20033;-65
2022/02/01 15:11:20;;;;;;;;;;;23.60;26.40;;;;;;5088648;28;20037;-66
2022/02/01 15:11:27;;;;;;;;;;;23.60;26.50;;;;;;5088822;28;19967;-65
2022/02/01 15:13:52;;;;;;;;;;;23.60;26.70;;;;;;5086363;28;19931;-66
2022/02/01 15:16:28;;;;;;;;;;;23.60;26.90;;;;;;5090589;28;19946;-67
2022/02/01 15:18:55;;;;;;;;;;;23.50;27.20;;;;;;5090115;28;20325;-67
2022/02/01 15:21:22;;;;;;;;;;;23.50;27.20;;;;;;5069200;28;19920;-64
2022/02/01 15:23:52;;;;;;;;;;;23.50;27.20;;;;;;5087031;28;19923;-69
2022/02/01 15:26:19;;;;;;;;;;;23.50;27.20;;;;;;5089963;28;19926;-65
2022/02/01 15:28:46;;;;;;;;;;;23.50;27.10;;;;;;5090189;28;19959;-68
2022/02/01 15:31:24;;;;;;;;;;;23.50;27.10;;;;;;5088458;28;19927;-66
2022/02/01 15:33:52;;;;;;;;;;;23.50;27.10;;;;;;5086019;28;20127;-65
2022/02/01 15:36:19;;;;;;;;;;;23.40;27.00;;;;;;5090167;28;19973;-66
2022/02/01 15:45:59;;;;;;;;;;;23.40;26.90;;;;;;5073012;28;19981;-65
2022/02/01 15:57:04;;;;;;;;;;;23.30;26.40;;;;;;5089331;28;19922;-68
2022/02/01 15:59:35;;;;;;;;;;;23.30;26.50;;;;;;5088665;28;19973;-69
2022/02/01 16:02:13;;;;;;;;;;;23.20;26.60;;;;;;5087514;28;19947;-69
2022/02/01 16:04:43;;;;;;;;;;;23.20;26.70;;;;;;5089688;28;19974;-69
2022/02/01 16:07:14;;;;;;;;;;;23.20;26.90;;;;;;5088322;28;19965;-68
2022/02/01 16:10:10;;;;;;;;;;;23.20;27.00;;;;;;5089077;28;19975;-68
2022/02/01 16:12:39;;;;;;;;;;;23.10;27.00;;;;;;5086452;28;19994;-68
2022/02/01 16:15:09;;;;;;;;;;;23.10;27.00;;;;;;5090083;28;19920;-68
2022/02/01 16:17:36;;;;;;;;;;;23.10;26.90;;;;;;5088853;28;20019;-68
2022/02/01 16:20:04;;;;;;;;;;;23.00;26.80;;;;;;5088700;28;19971;-68
2022/02/01 16:22:31;;;;;;;;;;;23.00;26.80;;;;;;5087060;28;20001;-69
2022/02/01 16:24:58;;;;;;;;;;;23.00;26.90;;;;;;5089889;28;20347;-69
2022/02/01 16:27:30;;;;;;;;;;;23.00;27.20;;;;;;5088507;28;20340;-67
2022/02/01 16:30:13;;;;;;;;;;;23.00;27.30;;;;;;5070893;28;19977;-67
2022/02/01 16:32:40;;;;;;;;;;;23.00;27.60;;;;;;5086389;28;20123;-67
2022/02/01 16:35:09;;;;;;;;;;;22.90;27.70;;;;;;5089294;28;19939;-65
2022/02/01 16:37:37;;;;;;;;;;;22.90;27.60;;;;;;5087522;28;20292;-67
2022/02/01 16:40:05;;;;;;;;;;;22.90;27.60;;;;;;5088594;28;19928;-67